Time;durP1;ratioP1;P1;durP2;ratioP2;P2;SDS_P1;SDS_P2;PMS_P1;PMS_P2;Temp;Humidity;BMP_temperature;BMP_pressure;BME280_temperature;BME280_humidity;BME280_pressure;Samples;Min_cycle;Max_cycle;Signal;HPM_P1;HPM_P2
2023/09/30 00:00:33;;;;;;;6.95;4.93;;;24.70;62.40;;;;;;5064067;28;20033;-81
2023/09/30 00:03:00;;;;;;;5.95;5.20;;;24.80;62.20;;;;;;5071102;28;20107;-82
2023/09/30 00:05:28;;;;;;;5.80;5.10;;;24.90;62.60;;;;;;5074388;28;20031;-78
2023/09/30 00:07:55;;;;;;;7.43;5.10;;;25.10;61.80;;;;;;5081321;28;20047;-79
2023/09/30 00:10:22;;;;;;;5.47;4.97;;;25.20;61.10;;;;;;5077996;28;20117;-82
2023/09/30 00:12:52;;;;;;;7.05;5.47;;;25.30;61.30;;;;;;5069337;28;20502;-83
2023/09/30 00:15:23;;;;;;;7.15;5.70;;;25.40;60.40;;;;;;5058656;28;20029;-81
2023/09/30 00:17:50;;;;;;;6.88;5.32;;;25.60;60.80;;;;;;5057970;28;20035;-83
2023/09/30 00:20:19;;;;;;;5.80;5.13;;;25.80;60.50;;;;;;5066176;28;20025;-76
2023/09/30 00:22:46;;;;;;;7.35;5.47;;;25.90;59.40;;;;;;5080962;28;20028;-78
2023/09/30 00:25:13;;;;;;;6.13;5.45;;;26.00;59.90;;;;;;5084492;28;20111;-80
2023/09/30 00:27:41;;;;;;;5.97;5.35;;;26.10;58.70;;;;;;5072916;28;20337;-79
2023/09/30 00:30:09;;;;;;;8.10;5.43;;;26.30;58.90;;;;;;5069183;28;20082;-82
2023/09/30 00:32:39;;;;;;;6.03;5.30;;;26.40;57.50;;;;;;5068743;28;20047;-80
2023/09/30 00:35:13;;;;;;;7.65;4.53;;;26.40;58.00;;;;;;5070184;28;20029;-79
2023/09/30 00:37:41;;;;;;;7.47;5.03;;;26.50;58.80;;;;;;5061866;28;20037;-82
2023/09/30 00:40:13;;;;;;;8.52;4.80;;;26.70;58.80;;;;;;5064868;28;20541;-81
2023/09/30 00:42:41;;;;;;;6.35;4.72;;;26.80;57.70;;;;;;5061083;28;20052;-84
2023/09/30 00:45:10;;;;;;;15.07;6.78;;;26.90;57.10;;;;;;5062468;28;20079;-79
2023/09/30 00:47:39;;;;;;;14.07;7.70;;;27.00;57.20;;;;;;5065066;28;20126;-84
2023/09/30 00:50:08;;;;;;;8.60;4.32;;;27.00;57.10;;;;;;5065847;28;20545;-83
2023/09/30 00:52:36;;;;;;;6.22;4.50;;;27.00;57.60;;;;;;5070061;28;20066;-83
2023/09/30 00:55:05;;;;;;;8.48;4.45;;;27.00;57.40;;;;;;5057111;28;20158;-85
2023/09/30 00:57:34;;;;;;;7.90;4.78;;;27.00;57.60;;;;;;5069837;28;20107;-85
2023/09/30 01:00:04;;;;;;;6.72;4.55;;;27.10;57.50;;;;;;5060362;28;20075;-81
2023/09/30 01:02:34;;;;;;;8.98;4.25;;;27.20;57.30;;;;;;5066539;28;20029;-79
2023/09/30 01:05:03;;;;;;;5.72;3.72;;;27.30;57.00;;;;;;5070377;28;20025;-80
2023/09/30 01:07:30;;;;;;;9.77;3.78;;;27.30;57.00;;;;;;5067890;28;20028;-82
2023/09/30 01:09:58;;;;;;;5.30;3.53;;;27.30;57.40;;;;;;5059878;28;20024;-80
2023/09/30 01:12:25;;;;;;;4.35;3.72;;;27.30;57.00;;;;;;5070308;28;20036;-83
2023/09/30 01:15:02;;;;;;;7.53;3.70;;;27.50;56.50;;;;;;5064850;28;20094;-80
2023/09/30 01:17:30;;;;;;;8.43;4.55;;;27.60;56.20;;;;;;5056019;28;20037;-81
2023/09/30 01:20:05;;;;;;;7.00;4.40;;;27.70;55.60;;;;;;5065416;28;20017;-83
2023/09/30 01:22:33;;;;;;;7.82;4.05;;;27.70;55.70;;;;;;5070126;28;20024;-84
2023/09/30 01:25:00;;;;;;;7.53;5.13;;;27.70;55.70;;;;;;5080530;28;20351;-82
2023/09/30 01:27:29;;;;;;;8.75;4.30;;;27.70;55.40;;;;;;5062312;28;20029;-84
2023/09/30 01:29:58;;;;;;;9.75;4.63;;;27.60;55.60;;;;;;5054923;28;20021;-85
2023/09/30 01:32:25;;;;;;;8.80;4.60;;;27.70;55.60;;;;;;5069827;28;20042;-85
2023/09/30 01:34:52;;;;;;;9.98;4.22;;;27.80;55.50;;;;;;5058953;28;20032;-82
2023/09/30 01:37:20;;;;;;;6.07;4.32;;;27.90;54.90;;;;;;5072858;28;20056;-82
2023/09/30 01:39:50;;;;;;;7.90;4.28;;;28.10;54.90;;;;;;5075828;28;20506;-83
2023/09/30 01:42:17;;;;;;;8.02;4.68;;;28.20;54.60;;;;;;5076108;28;20060;-83
2023/09/30 01:44:44;;;;;;;9.20;4.70;;;28.30;54.40;;;;;;5085243;28;20027;-80
2023/09/30 01:47:12;;;;;;;9.18;5.13;;;28.20;54.30;;;;;;5075842;28;20111;-82
2023/09/30 01:49:43;;;;;;;9.80;4.68;;;28.30;54.20;;;;;;5077356;28;20012;-82
2023/09/30 01:52:10;;;;;;;8.70;5.15;;;28.40;54.00;;;;;;5081785;28;20036;-81
2023/09/30 01:54:37;;;;;;;7.45;5.28;;;28.30;53.80;;;;;;5071946;28;20032;-83
2023/09/30 01:57:07;;;;;;;7.38;4.43;;;28.30;54.30;;;;;;5057176;28;20024;-79
2023/09/30 01:59:35;;;;;;;6.00;4.00;;;28.20;54.70;;;;;;5083536;28;20021;-84
2023/09/30 02:02:02;;;;;;;8.88;4.40;;;28.30;54.30;;;;;;5062603;28;20033;-83
2023/09/30 02:04:30;;;;;;;11.27;4.88;;;28.30;54.40;;;;;;5061485;28;20083;-84
2023/09/30 02:06:58;;;;;;;6.55;4.25;;;28.30;54.60;;;;;;5067561;28;20054;-80
2023/09/30 02:09:25;;;;;;;10.50;5.25;;;28.30;54.30;;;;;;5063387;28;20080;-84
2023/09/30 02:11:54;;;;;;;9.70;4.05;;;28.30;54.10;;;;;;5065336;28;20029;-83
2023/09/30 02:14:24;;;;;;;5.57;4.07;;;28.20;54.30;;;;;;5073345;28;20352;-83
2023/09/30 02:16:51;;;;;;;7.57;4.25;;;28.10;54.70;;;;;;5064750;28;20032;-84
2023/09/30 02:19:21;;;;;;;6.38;4.03;;;28.20;54.70;;;;;;5066846;28;20664;-84
2023/09/30 02:21:49;;;;;;;5.80;4.20;;;28.20;54.70;;;;;;5071790;28;20391;-84
2023/09/30 02:24:16;;;;;;;8.15;4.03;;;28.30;54.50;;;;;;5064923;28;20024;-82
2023/09/30 02:26:44;;;;;;;9.07;5.18;;;28.30;54.30;;;;;;5068781;28;20392;-83
2023/09/30 02:29:12;;;;;;;7.55;4.32;;;28.30;54.10;;;;;;5064761;28;20020;-81
2023/09/30 02:31:41;;;;;;;7.55;4.15;;;28.30;53.90;;;;;;5073619;28;20400;-83
2023/09/30 02:34:08;;;;;;;10.02;4.10;;;28.20;53.80;;;;;;5074754;28;20032;-83
2023/09/30 02:36:39;;;;;;;6.68;4.03;;;28.30;53.20;;;;;;5074726;28;20103;-82
2023/09/30 02:39:08;;;;;;;5.65;3.70;;;28.20;53.20;;;;;;5072734;28;20522;-82
2023/09/30 02:41:37;;;;;;;7.72;4.22;;;28.20;53.10;;;;;;5073212;28;20032;-82
2023/09/30 02:44:05;;;;;;;8.63;3.80;;;28.30;52.70;;;;;;5056717;28;20021;-82
2023/09/30 02:46:33;;;;;;;8.18;4.28;;;28.30;52.70;;;;;;5066382;28;20476;-84
2023/09/30 02:49:03;;;;;;;6.88;3.90;;;28.40;52.60;;;;;;5074179;28;20455;-84
2023/09/30 02:51:30;;;;;;;5.43;4.55;;;28.50;52.20;;;;;;5067290;28;20037;-83
2023/09/30 02:53:58;;;;;;;6.90;4.38;;;28.50;52.30;;;;;;5072394;28;20024;-83
2023/09/30 02:56:26;;;;;;;6.32;4.82;;;28.50;52.40;;;;;;5068227;28;20573;-80
2023/09/30 02:58:55;;;;;;;7.25;4.63;;;28.40;52.30;;;;;;5073267;28;20028;-80
2023/09/30 03:01:22;;;;;;;10.30;4.28;;;28.40;52.60;;;;;;5074463;28;20025;-80
2023/09/30 03:03:50;;;;;;;6.50;4.00;;;28.40;52.30;;;;;;5073037;28;20377;-79
2023/09/30 03:06:18;;;;;;;6.47;3.90;;;28.40;52.50;;;;;;5070889;28;20372;-80
2023/09/30 03:08:46;;;;;;;7.78;4.38;;;28.50;52.90;;;;;;5070648;28;20021;-83
2023/09/30 03:11:14;;;;;;;8.15;4.32;;;28.40;52.90;;;;;;5072502;28;20042;-80
2023/09/30 03:13:42;;;;;;;7.07;4.07;;;28.50;52.70;;;;;;5061618;28;20083;-79
2023/09/30 03:16:10;;;;;;;7.85;4.13;;;28.50;52.70;;;;;;5057071;28;20027;-77
2023/09/30 03:18:37;;;;;;;9.60;5.05;;;28.50;52.40;;;;;;5069415;28;20027;-83
2023/09/30 03:21:14;;;;;;;7.85;4.38;;;28.50;52.50;;;;;;5071543;28;20094;-84
2023/09/30 03:23:43;;;;;;;13.32;5.63;;;28.40;52.70;;;;;;5073856;28;20017;-85
2023/09/30 03:26:10;;;;;;;8.48;5.25;;;28.50;52.80;;;;;;5061371;28;20604;-84
2023/09/30 03:28:38;;;;;;;7.68;4.43;;;28.60;52.00;;;;;;5070685;28;20426;-81
2023/09/30 03:31:07;;;;;;;7.68;4.63;;;28.60;51.80;;;;;;5068850;28;20028;-83
2023/09/30 03:33:35;;;;;;;7.93;4.65;;;28.60;52.10;;;;;;5072277;28;20490;-79
2023/09/30 03:36:03;;;;;;;8.68;4.90;;;28.70;51.50;;;;;;5070336;28;20074;-78
2023/09/30 03:38:32;;;;;;;8.18;4.60;;;28.80;51.00;;;;;;5072129;28;20048;-84
2023/09/30 03:41:01;;;;;;;12.70;7.50;;;28.90;50.30;;;;;;5073282;28;20016;-82
2023/09/30 03:43:28;;;;;;;8.48;5.22;;;28.90;50.20;;;;;;5063260;28;20025;-78
2023/09/30 03:45:57;;;;;;;9.00;4.97;;;29.00;49.90;;;;;;5053435;28;20414;-82
2023/09/30 03:48:25;;;;;;;6.65;4.63;;;28.90;49.70;;;;;;5055801;28;20071;-81
2023/09/30 03:50:53;;;;;;;5.93;4.90;;;28.80;50.50;;;;;;5063530;28;20028;-83
2023/09/30 03:53:26;;;;;;;5.82;4.32;;;28.80;50.90;;;;;;5065194;28;20041;-79
2023/09/30 03:55:55;;;;;;;4.82;4.18;;;28.80;51.10;;;;;;5073187;28;20044;-80
2023/09/30 03:58:23;;;;;;;5.82;4.40;;;28.80;50.90;;;;;;5060538;28;20032;-82
2023/09/30 04:00:51;;;;;;;5.85;4.20;;;28.80;50.80;;;;;;5062972;28;20511;-83
2023/09/30 04:03:19;;;;;;;12.40;4.50;;;28.80;50.70;;;;;;5063467;28;20162;-84
2023/09/30 04:05:50;;;;;;;6.20;3.97;;;28.80;51.00;;;;;;5070087;28;20025;-82
2023/09/30 04:08:17;;;;;;;7.20;4.20;;;28.80;50.90;;;;;;5060935;28;20471;-83
2023/09/30 04:10:45;;;;;;;6.93;4.00;;;28.80;50.60;;;;;;5062356;28;20032;-84
2023/09/30 04:13:12;;;;;;;9.20;5.18;;;28.90;50.40;;;;;;5052837;28;20072;-81
2023/09/30 04:15:40;;;;;;;10.85;4.78;;;28.90;50.10;;;;;;5068660;28;20032;-84
2023/09/30 04:18:07;;;;;;;8.13;4.30;;;28.90;50.10;;;;;;5076778;28;20032;-82
2023/09/30 04:20:34;;;;;;;5.15;3.80;;;28.90;50.30;;;;;;5060273;28;21673;-81
2023/09/30 04:23:02;;;;;;;6.55;3.63;;;28.80;50.90;;;;;;5075431;28;20099;-83
2023/09/30 04:25:30;;;;;;;7.93;4.22;;;28.80;51.20;;;;;;5054538;28;20468;-83
2023/09/30 04:27:57;;;;;;;8.85;4.10;;;28.80;51.60;;;;;;5056965;28;20185;-82
2023/09/30 04:30:24;;;;;;;7.53;3.83;;;28.80;51.70;;;;;;5058781;28;20023;-82
2023/09/30 04:32:54;;;;;;;8.93;3.60;;;28.80;51.90;;;;;;5056702;28;20029;-80
2023/09/30 04:35:21;;;;;;;8.43;3.90;;;28.80;52.30;;;;;;5052427;28;20071;-82
2023/09/30 04:37:49;;;;;;;9.88;4.00;;;28.80;52.40;;;;;;5052496;28;20052;-83
2023/09/30 04:40:19;;;;;;;7.95;4.18;;;28.80;52.50;;;;;;5069125;28;20383;-85
2023/09/30 04:42:47;;;;;;;9.65;4.03;;;28.80;52.60;;;;;;5068612;28;20063;-82
2023/09/30 04:45:24;;;;;;;10.45;4.07;;;28.90;52.50;;;;;;5069993;28;20055;-84
2023/09/30 04:47:51;;;;;;;6.55;3.65;;;28.90;52.40;;;;;;5071942;28;20028;-80
2023/09/30 04:50:21;;;;;;;6.13;3.50;;;28.80;52.40;;;;;;5077186;28;20073;-81
2023/09/30 04:52:50;;;;;;;10.27;4.07;;;28.80;52.70;;;;;;5071294;28;20506;-81
2023/09/30 04:55:18;;;;;;;10.35;3.80;;;28.60;53.10;;;;;;5061772;28;20025;-82
2023/09/30 04:57:47;;;;;;;5.88;3.55;;;28.60;53.30;;;;;;5059645;28;20052;-81
2023/09/30 05:00:24;;;;;;;9.30;4.43;;;28.40;53.80;;;;;;5089671;28;20120;-87
2023/09/30 05:02:53;;;;;;;12.63;4.50;;;28.40;54.00;;;;;;5073376;28;20025;-84
2023/09/30 05:05:22;;;;;;;7.85;4.22;;;28.40;54.20;;;;;;5064690;28;20032;-82
2023/09/30 05:07:53;;;;;;;5.93;3.60;;;28.30;54.30;;;;;;5059358;28;20438;-82
2023/09/30 05:10:20;;;;;;;10.18;4.10;;;28.20;54.60;;;;;;5070415;28;20495;-83
2023/09/30 05:12:49;;;;;;;9.43;4.47;;;28.10;54.90;;;;;;5073165;28;20091;-82
2023/09/30 05:15:19;;;;;;;7.97;3.60;;;28.00;55.00;;;;;;5071112;28;20116;-83
2023/09/30 05:17:47;;;;;;;11.10;3.83;;;28.00;55.10;;;;;;5070583;28;20036;-81
2023/09/30 05:20:19;;;;;;;9.52;4.32;;;27.90;55.50;;;;;;5054205;28;20070;-82
2023/09/30 05:22:48;;;;;;;9.60;3.63;;;27.80;55.70;;;;;;5064976;28;20024;-83
2023/09/30 05:25:17;;;;;;;9.57;3.50;;;27.80;56.00;;;;;;5056899;28;20029;-83
2023/09/30 05:27:47;;;;;;;10.65;3.88;;;27.70;56.40;;;;;;5076264;28;20017;-82
2023/09/30 05:30:15;;;;;;;8.45;3.50;;;27.60;56.60;;;;;;5073856;28;20569;-83
2023/09/30 05:32:46;;;;;;;8.70;3.90;;;27.60;56.70;;;;;;5075755;28;20472;-82
2023/09/30 05:35:16;;;;;;;5.78;3.33;;;27.60;57.00;;;;;;5075490;28;20545;-83
2023/09/30 05:37:48;;;;;;;9.25;3.30;;;27.60;57.00;;;;;;5068996;28;20068;-83
2023/09/30 05:40:23;;;;;;;10.10;4.25;;;27.60;57.10;;;;;;5063504;28;20025;-80
2023/09/30 05:42:55;;;;;;;12.18;4.70;;;27.60;57.10;;;;;;5062703;28;20033;-79
2023/09/30 05:45:26;;;;;;;12.18;4.00;;;27.50;57.20;;;;;;5057611;28;20159;-81
2023/09/30 05:47:56;;;;;;;7.45;3.88;;;27.60;57.20;;;;;;5071942;28;20107;-82
2023/09/30 05:50:26;;;;;;;7.53;4.18;;;27.50;57.00;;;;;;5065149;28;20030;-81
2023/09/30 05:52:56;;;;;;;8.18;3.63;;;27.40;57.60;;;;;;5067118;28;20029;-80
2023/09/30 05:55:25;;;;;;;9.65;3.30;;;27.40;57.30;;;;;;5070012;28;20092;-82
2023/09/30 05:57:56;;;;;;;9.00;3.58;;;27.30;57.60;;;;;;5058711;28;20063;-83
2023/09/30 06:02:51;;;;;;;9.13;3.47;;;27.30;58.20;;;;;;5066641;28;20055;-81
2023/09/30 06:05:19;;;;;;;8.20;3.50;;;27.10;58.40;;;;;;5072043;28;20528;-82
2023/09/30 06:07:47;;;;;;;10.60;3.58;;;27.10;58.80;;;;;;5068640;28;20469;-82
2023/09/30 06:10:18;;;;;;;12.13;3.65;;;27.00;58.90;;;;;;5056975;28;20025;-82
2023/09/30 06:12:49;;;;;;;10.15;3.42;;;26.90;59.10;;;;;;5066761;28;20517;-81
2023/09/30 06:15:21;;;;;;;8.73;3.33;;;26.90;59.20;;;;;;5074938;28;20025;-78
2023/09/30 06:17:53;;;;;;;8.05;3.60;;;26.80;59.50;;;;;;5060188;28;20036;-82
2023/09/30 06:20:22;;;;;;;10.90;3.58;;;26.80;59.50;;;;;;5061769;28;20017;-80
2023/09/30 06:22:50;;;;;;;9.23;3.35;;;26.70;59.80;;;;;;5073173;28;20020;-81
2023/09/30 06:25:18;;;;;;;14.82;3.70;;;26.60;59.90;;;;;;5061132;28;20471;-81
2023/09/30 06:27:50;;;;;;;9.13;3.58;;;26.50;60.20;;;;;;5075206;28;20419;-81
2023/09/30 06:30:21;;;;;;;9.23;3.25;;;26.50;60.30;;;;;;5068879;28;20028;-78
2023/09/30 06:32:49;;;;;;;8.68;3.40;;;26.40;60.40;;;;;;5056881;28;20032;-83
2023/09/30 06:35:16;;;;;;;11.77;3.80;;;26.30;60.40;;;;;;5068470;28;20024;-82
2023/09/30 06:37:45;;;;;;;9.95;4.95;;;26.30;60.60;;;;;;5070790;28;20041;-82
2023/09/30 06:40:13;;;;;;;7.40;4.40;;;26.30;60.40;;;;;;5062044;28;20033;-83
2023/09/30 06:42:40;;;;;;;11.63;4.53;;;26.30;60.20;;;;;;5062328;28;20025;-82
2023/09/30 06:45:09;;;;;;;12.05;4.68;;;26.30;60.30;;;;;;5055635;28;20032;-82
2023/09/30 06:47:39;;;;;;;12.15;4.25;;;26.30;60.40;;;;;;5054830;28;20060;-82
2023/09/30 06:50:16;;;;;;;10.38;3.80;;;26.30;60.30;;;;;;5058728;28;20060;-82
2023/09/30 06:52:49;;;;;;;7.45;3.28;;;26.30;60.20;;;;;;5061245;28;20059;-82
2023/09/30 06:55:19;;;;;;;7.97;3.25;;;26.20;59.80;;;;;;5057588;28;20044;-82
2023/09/30 06:57:47;;;;;;;9.43;3.70;;;26.00;60.10;;;;;;5056352;28;20029;-82
2023/09/30 07:00:16;;;;;;;10.52;3.78;;;25.90;60.20;;;;;;5062776;28;20548;-81
2023/09/30 07:02:44;;;;;;;11.02;4.07;;;25.80;60.60;;;;;;5065201;28;20036;-80
2023/09/30 07:05:13;;;;;;;8.68;4.15;;;25.70;60.60;;;;;;5066770;28;20663;-81
2023/09/30 07:07:43;;;;;;;10.50;4.38;;;25.60;60.90;;;;;;5067854;28;20077;-83
2023/09/30 07:10:21;;;;;;;8.32;3.67;;;25.50;61.00;;;;;;5056930;28;20389;-83
2023/09/30 07:12:48;;;;;;;10.07;3.60;;;25.30;61.20;;;;;;5069543;28;20041;-83
2023/09/30 07:15:16;;;;;;;8.95;3.67;;;25.20;62.00;;;;;;5053628;28;20103;-82
2023/09/30 07:17:45;;;;;;;10.95;3.42;;;25.20;62.20;;;;;;5053847;28;20029;-81
2023/09/30 07:20:14;;;;;;;12.80;3.75;;;25.10;62.10;;;;;;5053749;28;20028;-81
2023/09/30 07:22:41;;;;;;;11.68;3.67;;;24.90;62.10;;;;;;5055911;28;20074;-81
2023/09/30 07:25:09;;;;;;;8.57;3.40;;;24.80;62.50;;;;;;5072394;28;20023;-81
2023/09/30 07:27:46;;;;;;;9.70;3.92;;;24.80;62.80;;;;;;5073347;28;20105;-82
2023/09/30 07:30:17;;;;;;;6.55;2.65;;;24.80;62.80;;;;;;5073955;28;20036;-84
2023/09/30 07:32:45;;;;;;;12.38;3.70;;;24.70;62.90;;;;;;5074762;28;20051;-83
2023/09/30 07:35:15;;;;;;;12.73;3.72;;;24.70;62.70;;;;;;5082894;28;20028;-77
2023/09/30 07:37:43;;;;;;;9.00;3.30;;;24.50;62.50;;;;;;5084266;28;20040;-79
2023/09/30 07:40:11;;;;;;;9.43;3.30;;;24.50;62.70;;;;;;5076704;28;20032;-83
2023/09/30 07:42:40;;;;;;;8.60;3.10;;;24.40;63.00;;;;;;5074203;28;20066;-82
2023/09/30 07:45:08;;;;;;;9.40;3.63;;;24.30;63.20;;;;;;5073585;28;20028;-81
2023/09/30 07:47:36;;;;;;;9.77;3.85;;;24.30;63.20;;;;;;5073475;28;20020;-82
2023/09/30 07:50:09;;;;;;;11.05;4.13;;;24.20;63.40;;;;;;5073746;28;20099;-82
2023/09/30 07:52:39;;;;;;;10.60;3.75;;;24.20;63.40;;;;;;5073349;28;20693;-83
2023/09/30 07:55:06;;;;;;;9.23;4.20;;;24.10;63.20;;;;;;5071355;28;20428;-82
2023/09/30 07:57:34;;;;;;;11.63;4.38;;;24.10;63.40;;;;;;5073378;28;20040;-81
2023/09/30 08:00:02;;;;;;;9.73;4.63;;;24.00;63.50;;;;;;5073332;28;20392;-83
2023/09/30 08:02:33;;;;;;;9.88;4.00;;;24.00;63.50;;;;;;5069986;28;20025;-83
2023/09/30 08:05:01;;;;;;;9.40;3.70;;;24.00;63.60;;;;;;5065110;28;20227;-83
2023/09/30 08:07:28;;;;;;;13.40;4.60;;;23.90;63.60;;;;;;5067855;28;20078;-81
2023/09/30 08:09:55;;;;;;;8.63;3.78;;;23.90;63.50;;;;;;5063762;28;20020;-82
2023/09/30 08:12:23;;;;;;;13.65;3.78;;;23.80;63.50;;;;;;5072877;28;20029;-79
2023/09/30 08:14:53;;;;;;;10.40;3.88;;;23.70;63.70;;;;;;5072808;28;20027;-82
2023/09/30 08:17:24;;;;;;;9.63;3.83;;;23.70;63.70;;;;;;5071798;28;20036;-82
2023/09/30 08:19:52;;;;;;;7.50;3.20;;;23.70;63.60;;;;;;5071289;28;20494;-81
2023/09/30 08:22:21;;;;;;;9.88;3.80;;;23.60;63.80;;;;;;5072245;28;20036;-81
2023/09/30 08:24:48;;;;;;;10.13;3.88;;;23.60;63.90;;;;;;5053429;28;20043;-81
2023/09/30 08:27:16;;;;;;;11.25;3.78;;;23.50;63.80;;;;;;5091338;28;20490;-81
2023/09/30 08:29:43;;;;;;;8.05;3.70;;;23.50;63.70;;;;;;5072021;28;20020;-81
2023/09/30 08:32:11;;;;;;;12.43;3.53;;;23.50;63.20;;;;;;5065176;28;20100;-82
2023/09/30 08:34:39;;;;;;;7.57;3.58;;;23.50;63.20;;;;;;5069210;28;20032;-80
2023/09/30 08:37:06;;;;;;;10.50;4.40;;;23.40;63.10;;;;;;5069430;28;20041;-81
2023/09/30 08:39:38;;;;;;;13.90;4.68;;;23.30;62.80;;;;;;5071725;28;20028;-81
2023/09/30 08:42:10;;;;;;;9.23;3.83;;;23.30;62.40;;;;;;5072390;28;20146;-82
2023/09/30 08:44:39;;;;;;;8.27;3.90;;;23.30;61.50;;;;;;5069344;28;20532;-81
2023/09/30 08:47:10;;;;;;;11.27;3.60;;;23.30;61.10;;;;;;5071974;28;20031;-78
2023/09/30 08:49:43;;;;;;;10.68;3.42;;;23.20;60.10;;;;;;5056341;28;20017;-81
2023/09/30 08:52:12;;;;;;;8.98;2.90;;;23.20;60.20;;;;;;5060177;28;20056;-82
2023/09/30 08:54:41;;;;;;;11.20;3.58;;;23.20;60.20;;;;;;5063952;28;20095;-82
2023/09/30 08:57:13;;;;;;;9.75;3.35;;;23.10;59.50;;;;;;5079952;28;20025;-79
2023/09/30 08:59:43;;;;;;;12.25;3.25;;;23.00;59.00;;;;;;5060591;28;20425;-82
2023/09/30 09:02:11;;;;;;;9.82;3.42;;;23.00;58.30;;;;;;5068879;28;20163;-82
2023/09/30 09:04:38;;;;;;;9.05;3.60;;;23.00;58.70;;;;;;5072356;28;20143;-81
2023/09/30 09:07:06;;;;;;;9.05;3.45;;;23.00;58.40;;;;;;5070443;28;20494;-79
2023/09/30 09:09:33;;;;;;;8.55;3.30;;;23.00;57.10;;;;;;5057018;28;20024;-80
2023/09/30 09:12:02;;;;;;;8.90;3.58;;;23.00;56.70;;;;;;5068448;28;20031;-82
2023/09/30 09:14:46;;;;;;;13.23;3.35;;;23.00;56.20;;;;;;5071197;28;20529;-81
2023/09/30 09:17:14;;;;;;;8.02;3.08;;;23.00;56.50;;;;;;5060190;28;20035;-81
2023/09/30 09:19:42;;;;;;;9.40;3.47;;;23.00;55.90;;;;;;5061921;28;20111;-82
2023/09/30 09:22:11;;;;;;;7.10;3.15;;;23.00;56.10;;;;;;5052189;28;20029;-81
2023/09/30 09:24:39;;;;;;;11.35;3.55;;;23.00;57.00;;;;;;5062704;28;20036;-82
2023/09/30 09:27:08;;;;;;;9.23;3.50;;;23.00;56.50;;;;;;5059018;28;20044;-82
2023/09/30 09:29:42;;;;;;;7.57;3.28;;;23.00;56.50;;;;;;5071893;28;20437;-81
2023/09/30 09:32:16;;;;;;;6.90;3.50;;;22.90;56.70;;;;;;5061304;28;20411;-82
2023/09/30 09:34:46;;;;;;;8.32;3.08;;;22.90;56.80;;;;;;5055536;28;20056;-81
2023/09/30 09:37:22;;;;;;;7.28;3.13;;;22.90;57.00;;;;;;5055033;28;20505;-81
2023/09/30 09:39:56;;;;;;;8.00;3.70;;;22.90;57.00;;;;;;5073710;28;20040;-80
2023/09/30 09:42:28;;;;;;;12.47;3.33;;;22.80;57.20;;;;;;5075727;28;20032;-82
2023/09/30 09:45:00;;;;;;;9.70;3.60;;;22.80;57.00;;;;;;5075350;28;20691;-81
2023/09/30 09:47:29;;;;;;;8.77;3.72;;;22.80;57.00;;;;;;5075436;28;20403;-80
2023/09/30 09:49:58;;;;;;;10.50;4.35;;;22.80;56.80;;;;;;5073611;28;20434;-81
2023/09/30 09:52:26;;;;;;;11.88;4.65;;;22.80;56.90;;;;;;5074573;28;20078;-80
2023/09/30 09:54:53;;;;;;;11.68;3.83;;;22.80;57.80;;;;;;5058533;28;20041;-82
2023/09/30 09:57:22;;;;;;;11.65;3.97;;;22.80;57.60;;;;;;5055720;28;20475;-82
2023/09/30 09:59:50;;;;;;;7.72;3.63;;;22.80;57.80;;;;;;5053963;28;20484;-81
2023/09/30 10:02:19;;;;;;;7.10;3.35;;;22.80;57.90;;;;;;5054838;28;20023;-82
2023/09/30 10:04:47;;;;;;;9.65;3.63;;;22.80;58.20;;;;;;5055561;28;20021;-82
2023/09/30 10:07:29;;;;;;;8.00;3.10;;;22.80;58.20;;;;;;5054033;28;20033;-81
2023/09/30 10:10:01;;;;;;;10.45;3.53;;;22.80;58.20;;;;;;5055250;28;20036;-81
2023/09/30 10:12:36;;;;;;;10.93;4.10;;;22.80;58.40;;;;;;5068524;28;20505;-81
2023/09/30 10:15:26;;;;;;;10.93;4.05;;;22.80;58.80;;;;;;5075306;28;20487;-81
2023/09/30 10:17:59;;;;;;;9.15;3.72;;;22.80;59.30;;;;;;5074968;28;20505;-82
2023/09/30 10:20:32;;;;;;;14.80;4.43;;;22.80;59.70;;;;;;5075272;28;20058;-83
2023/09/30 10:23:17;;;;;;;9.80;3.90;;;22.80;60.30;;;;;;5075545;28;20080;-83
2023/09/30 10:25:51;;;;;;;12.07;4.17;;;22.80;61.20;;;;;;5072657;28;20021;-82
2023/09/30 10:28:40;;;;;;;10.70;4.30;;;22.80;62.20;;;;;;5061720;28;20029;-82
2023/09/30 10:31:26;;;;;;;9.93;4.45;;;22.70;63.00;;;;;;5074965;28;20024;-84
2023/09/30 10:34:03;;;;;;;14.02;5.00;;;22.70;63.20;;;;;;5061016;28;20066;-85
2023/09/30 10:36:41;;;;;;;22.38;5.90;;;22.70;63.10;;;;;;5057051;28;20033;-84
2023/09/30 10:40:04;;;;;;;14.32;5.15;;;22.60;63.90;;;;;;5055161;28;20052;-84
2023/09/30 10:42:56;;;;;;;13.70;4.75;;;22.50;64.10;;;;;;5013813;28;20058;-84
2023/09/30 10:45:45;;;;;;;13.90;4.78;;;22.50;64.40;;;;;;5054727;28;20033;-80
2023/09/30 10:48:48;;;;;;;14.50;4.18;;;22.40;65.20;;;;;;5058094;28;20029;-84
2023/09/30 10:51:26;;;;;;;10.13;4.68;;;22.30;65.40;;;;;;5062230;28;20029;-83
2023/09/30 10:54:00;;;;;;;16.00;5.13;;;22.20;66.50;;;;;;5071828;28;20039;-82
2023/09/30 10:56:36;;;;;;;11.13;4.50;;;22.10;65.90;;;;;;5057164;28;20534;-84
2023/09/30 10:59:04;;;;;;;17.88;5.10;;;22.10;66.40;;;;;;5076829;28;20032;-81
2023/09/30 11:01:35;;;;;;;15.50;4.80;;;22.00;66.80;;;;;;5079455;28;20042;-83
2023/09/30 11:04:05;;;;;;;11.88;4.65;;;22.00;67.60;;;;;;5077684;28;20070;-84
2023/09/30 11:06:33;;;;;;;12.90;4.97;;;21.90;67.70;;;;;;5078359;28;20021;-81
2023/09/30 11:09:02;;;;;;;17.05;6.53;;;21.90;68.00;;;;;;5076116;28;20107;-81
2023/09/30 11:11:43;;;;;;;17.58;6.55;;;21.90;67.80;;;;;;5078875;28;20108;-82
2023/09/30 11:14:33;;;;;;;18.15;6.20;;;21.90;68.00;;;;;;5079289;28;20475;-82
2023/09/30 11:17:06;;;;;;;13.68;5.63;;;21.90;67.70;;;;;;5088734;28;20031;-79
2023/09/30 11:19:49;;;;;;;16.70;6.05;;;21.80;68.50;;;;;;5080272;28;20383;-79
2023/09/30 11:22:22;;;;;;;21.52;6.43;;;21.80;68.40;;;;;;5078495;28;20024;-80
2023/09/30 11:24:50;;;;;;;15.85;5.65;;;21.80;68.50;;;;;;5057810;28;20079;-81
2023/09/30 11:27:31;;;;;;;18.58;6.55;;;21.80;68.80;;;;;;5059376;28;20025;-80
2023/09/30 11:29:58;;;;;;;14.50;5.90;;;21.70;69.10;;;;;;5056258;28;20068;-80
2023/09/30 11:32:28;;;;;;;16.20;5.90;;;21.60;69.20;;;;;;5058575;28;20053;-81
2023/09/30 11:34:56;;;;;;;17.48;7.13;;;21.60;69.50;;;;;;5063355;28;20101;-80
2023/09/30 11:37:24;;;;;;;16.55;7.05;;;21.60;69.60;;;;;;5060953;28;20041;-81
2023/09/30 11:39:51;;;;;;;14.80;5.68;;;21.50;69.50;;;;;;5063270;28;20048;-82
2023/09/30 11:42:20;;;;;;;18.15;6.95;;;21.50;70.20;;;;;;5081431;28;20270;-82
2023/09/30 11:44:49;;;;;;;14.80;5.88;;;21.50;69.80;;;;;;5083091;28;20032;-83
2023/09/30 11:47:28;;;;;;;14.25;6.05;;;21.40;70.00;;;;;;5075746;28;20459;-82
2023/09/30 11:49:56;;;;;;;18.98;7.18;;;21.40;70.20;;;;;;5074168;28;20028;-82
2023/09/30 11:52:28;;;;;;;16.02;6.65;;;21.40;70.30;;;;;;5060911;28;20028;-83
2023/09/30 11:54:56;;;;;;;18.23;7.70;;;21.30;70.60;;;;;;5073911;28;20028;-83
2023/09/30 11:57:23;;;;;;;22.73;8.75;;;21.30;70.60;;;;;;5069965;28;20017;-82
2023/09/30 11:59:51;;;;;;;20.17;8.15;;;21.20;70.70;;;;;;5069172;28;20392;-82
2023/09/30 12:02:18;;;;;;;17.00;7.80;;;21.30;70.60;;;;;;5064946;28;20085;-83
2023/09/30 12:04:49;;;;;;;16.48;7.22;;;21.20;70.60;;;;;;5074027;28;20551;-83
2023/09/30 12:07:17;;;;;;;20.90;7.60;;;21.20;70.80;;;;;;5067059;28;20029;-82
2023/09/30 12:09:44;;;;;;;15.45;6.60;;;21.20;71.10;;;;;;5070602;28;20033;-79
2023/09/30 12:12:14;;;;;;;17.42;6.97;;;21.10;71.30;;;;;;5070632;28;20052;-83
2023/09/30 12:14:42;;;;;;;15.25;7.28;;;21.10;71.10;;;;;;5063914;28;20036;-82
2023/09/30 12:17:14;;;;;;;27.33;8.27;;;21.10;71.30;;;;;;5058173;28;20039;-82
2023/09/30 12:19:41;;;;;;;18.52;7.85;;;21.10;71.20;;;;;;5053554;28;20021;-83
2023/09/30 12:22:10;;;;;;;19.65;7.53;;;21.10;71.40;;;;;;5055525;28;20493;-83
2023/09/30 12:24:37;;;;;;;20.85;8.45;;;21.00;71.20;;;;;;5066858;28;20111;-82
2023/09/30 12:27:04;;;;;;;19.50;8.63;;;21.10;71.40;;;;;;5072641;28;20115;-81
2023/09/30 12:29:32;;;;;;;16.88;7.47;;;21.00;71.50;;;;;;5067247;28;20024;-83
2023/09/30 12:32:00;;;;;;;16.20;7.35;;;20.90;71.70;;;;;;5053445;28;20040;-82
2023/09/30 12:34:30;;;;;;;19.17;8.15;;;21.00;71.90;;;;;;5060639;28;20033;-83
2023/09/30 12:36:58;;;;;;;21.95;8.00;;;20.90;71.70;;;;;;5051077;28;20091;-83
2023/09/30 12:39:26;;;;;;;20.45;8.40;;;20.90;71.70;;;;;;5067949;28;20037;-81
2023/09/30 12:41:53;;;;;;;17.05;7.68;;;20.90;71.80;;;;;;5064707;28;20471;-84
2023/09/30 12:44:22;;;;;;;21.63;9.88;;;20.80;72.00;;;;;;5071974;28;20447;-79
2023/09/30 12:46:50;;;;;;;16.10;8.25;;;20.80;71.80;;;;;;5072885;28;20112;-82
2023/09/30 12:49:18;;;;;;;18.17;7.88;;;20.80;72.30;;;;;;5068050;28;20020;-81
2023/09/30 12:51:45;;;;;;;16.23;8.30;;;20.70;72.50;;;;;;5071532;28;20032;-80
2023/09/30 12:54:14;;;;;;;21.38;9.40;;;20.70;72.50;;;;;;5072692;28;20379;-83
2023/09/30 12:56:41;;;;;;;18.83;9.07;;;20.70;72.40;;;;;;5056895;28;20051;-79
2023/09/30 12:59:09;;;;;;;15.93;8.27;;;20.60;72.50;;;;;;5053210;28;21835;-83